sensor_id;sensor_type;location;lat;lon;timestamp;P1;durP1;ratioP1;P2;durP2;ratioP2
11287;SDS011;5700;50.996;7.044;2022-09-17T00:02:18;3.75;;;1.27;;
11287;SDS011;5700;50.996;7.044;2022-09-17T00:05:19;10.40;;;1.88;;
11287;SDS011;5700;50.996;7.044;2022-09-17T00:08:20;5.75;;;1.17;;
11287;SDS011;5700;50.996;7.044;2022-09-17T00:11:23;4.50;;;1.55;;
11287;SDS011;5700;50.996;7.044;2022-09-17T00:14:26;4.10;;;1.00;;
11287;SDS011;5700;50.996;7.044;2022-09-17T00:17:28;2.30;;;1.00;;
11287;SDS011;5700;50.996;7.044;2022-09-17T00:20:30;7.53;;;1.17;;
11287;SDS011;5700;50.996;7.044;2022-09-17T00:23:31;5.40;;;1.10;;
11287;SDS011;5700;50.996;7.044;2022-09-17T00:26:33;5.10;;;1.45;;
11287;SDS011;5700;50.996;7.044;2022-09-17T00:29:35;5.18;;;1.27;;
11287;SDS011;5700;50.996;7.044;2022-09-17T00:32:38;7.25;;;1.70;;
11287;SDS011;5700;50.996;7.044;2022-09-17T00:35:39;4.18;;;1.35;;
11287;SDS011;5700;50.996;7.044;2022-09-17T00:38:41;6.20;;;1.40;;
11287;SDS011;5700;50.996;7.044;2022-09-17T00:41:42;4.43;;;1.30;;
11287;SDS011;5700;50.996;7.044;2022-09-17T00:44:45;4.28;;;1.33;;
11287;SDS011;5700;50.996;7.044;2022-09-17T00:47:50;5.55;;;1.38;;
11287;SDS011;5700;50.996;7.044;2022-09-17T00:50:55;3.08;;;1.20;;
11287;SDS011;5700;50.996;7.044;2022-09-17T00:54:00;6.38;;;1.38;;
11287;SDS011;5700;50.996;7.044;2022-09-17T00:57:03;5.47;;;1.45;;
11287;SDS011;5700;50.996;7.044;2022-09-17T01:00:05;6.30;;;1.38;;
11287;SDS011;5700;50.996;7.044;2022-09-17T01:03:08;6.07;;;1.13;;
11287;SDS011;5700;50.996;7.044;2022-09-17T01:06:12;4.38;;;1.30;;
11287;SDS011;5700;50.996;7.044;2022-09-17T01:09:20;3.55;;;1.08;;
11287;SDS011;5700;50.996;7.044;2022-09-17T01:12:38;4.05;;;1.20;;
11287;SDS011;5700;50.996;7.044;2022-09-17T01:15:50;7.43;;;1.58;;
11287;SDS011;5700;50.996;7.044;2022-09-17T01:19:02;4.75;;;1.30;;
11287;SDS011;5700;50.996;7.044;2022-09-17T01:22:13;5.00;;;1.60;;
11287;SDS011;5700;50.996;7.044;2022-09-17T01:25:21;6.53;;;1.48;;
11287;SDS011;5700;50.996;7.044;2022-09-17T01:28:26;6.00;;;1.90;;
11287;SDS011;5700;50.996;7.044;2022-09-17T01:31:34;5.63;;;1.95;;
11287;SDS011;5700;50.996;7.044;2022-09-17T01:34:39;5.72;;;1.70;;
11287;SDS011;5700;50.996;7.044;2022-09-17T01:37:43;2.75;;;1.23;;
11287;SDS011;5700;50.996;7.044;2022-09-17T01:40:50;5.10;;;1.63;;
11287;SDS011;5700;50.996;7.044;2022-09-17T01:43:55;5.72;;;1.63;;
11287;SDS011;5700;50.996;7.044;2022-09-17T01:47:02;4.63;;;1.60;;
11287;SDS011;5700;50.996;7.044;2022-09-17T01:50:08;8.88;;;1.77;;
11287;SDS011;5700;50.996;7.044;2022-09-17T01:53:11;5.32;;;1.40;;
11287;SDS011;5700;50.996;7.044;2022-09-17T01:56:15;8.65;;;2.03;;
11287;SDS011;5700;50.996;7.044;2022-09-17T01:59:19;8.02;;;1.90;;
11287;SDS011;5700;50.996;7.044;2022-09-17T02:02:25;8.90;;;2.22;;
11287;SDS011;5700;50.996;7.044;2022-09-17T02:05:28;9.57;;;1.60;;
11287;SDS011;5700;50.996;7.044;2022-09-17T02:08:34;3.03;;;1.45;;
11287;SDS011;5700;50.996;7.044;2022-09-17T02:11:37;8.93;;;1.52;;
11287;SDS011;5700;50.996;7.044;2022-09-17T02:14:42;10.32;;;2.08;;
11287;SDS011;5700;50.996;7.044;2022-09-17T02:17:49;6.22;;;1.35;;
11287;SDS011;5700;50.996;7.044;2022-09-17T02:20:53;5.53;;;1.50;;
11287;SDS011;5700;50.996;7.044;2022-09-17T02:24:04;7.97;;;2.47;;
11287;SDS011;5700;50.996;7.044;2022-09-17T02:27:10;4.82;;;1.67;;
11287;SDS011;5700;50.996;7.044;2022-09-17T02:30:18;8.98;;;1.60;;
11287;SDS011;5700;50.996;7.044;2022-09-17T02:33:21;11.10;;;1.80;;
11287;SDS011;5700;50.996;7.044;2022-09-17T02:36:23;5.95;;;1.70;;
11287;SDS011;5700;50.996;7.044;2022-09-17T02:39:24;9.10;;;1.90;;
11287;SDS011;5700;50.996;7.044;2022-09-17T02:42:27;4.20;;;1.48;;
11287;SDS011;5700;50.996;7.044;2022-09-17T02:45:35;8.10;;;1.60;;
11287;SDS011;5700;50.996;7.044;2022-09-17T02:48:49;8.48;;;1.70;;
11287;SDS011;5700;50.996;7.044;2022-09-17T02:52:02;13.98;;;2.20;;
11287;SDS011;5700;50.996;7.044;2022-09-17T02:55:11;11.40;;;2.38;;
11287;SDS011;5700;50.996;7.044;2022-09-17T02:58:17;8.77;;;1.85;;
11287;SDS011;5700;50.996;7.044;2022-09-17T03:01:22;6.35;;;2.10;;
11287;SDS011;5700;50.996;7.044;2022-09-17T03:04:27;6.10;;;1.70;;
11287;SDS011;5700;50.996;7.044;2022-09-17T03:07:30;8.93;;;1.98;;
11287;SDS011;5700;50.996;7.044;2022-09-17T03:10:31;7.82;;;1.92;;
11287;SDS011;5700;50.996;7.044;2022-09-17T03:13:33;10.13;;;1.67;;
11287;SDS011;5700;50.996;7.044;2022-09-17T03:16:35;8.23;;;1.95;;
11287;SDS011;5700;50.996;7.044;2022-09-17T03:19:37;12.40;;;2.25;;
11287;SDS011;5700;50.996;7.044;2022-09-17T03:22:39;16.90;;;2.60;;
11287;SDS011;5700;50.996;7.044;2022-09-17T03:25:40;12.45;;;2.05;;
11287;SDS011;5700;50.996;7.044;2022-09-17T03:28:42;7.75;;;1.52;;
11287;SDS011;5700;50.996;7.044;2022-09-17T03:31:43;9.70;;;2.17;;
11287;SDS011;5700;50.996;7.044;2022-09-17T03:34:46;9.82;;;1.77;;
11287;SDS011;5700;50.996;7.044;2022-09-17T03:37:47;6.63;;;1.83;;
11287;SDS011;5700;50.996;7.044;2022-09-17T03:40:56;10.65;;;1.83;;
11287;SDS011;5700;50.996;7.044;2022-09-17T03:43:58;7.80;;;2.00;;
11287;SDS011;5700;50.996;7.044;2022-09-17T03:47:00;8.52;;;1.98;;
11287;SDS011;5700;50.996;7.044;2022-09-17T03:50:03;11.02;;;1.63;;
11287;SDS011;5700;50.996;7.044;2022-09-17T03:53:05;10.55;;;1.70;;
11287;SDS011;5700;50.996;7.044;2022-09-17T03:56:06;7.18;;;1.30;;
11287;SDS011;5700;50.996;7.044;2022-09-17T03:59:08;11.43;;;1.63;;
11287;SDS011;5700;50.996;7.044;2022-09-17T04:02:09;10.63;;;1.73;;
11287;SDS011;5700;50.996;7.044;2022-09-17T04:05:12;4.93;;;1.25;;
11287;SDS011;5700;50.996;7.044;2022-09-17T04:08:13;5.90;;;1.42;;
11287;SDS011;5700;50.996;7.044;2022-09-17T04:11:15;7.93;;;1.42;;
11287;SDS011;5700;50.996;7.044;2022-09-17T04:14:16;4.70;;;1.10;;
11287;SDS011;5700;50.996;7.044;2022-09-17T04:17:17;5.40;;;1.08;;
11287;SDS011;5700;50.996;7.044;2022-09-17T04:20:20;6.72;;;1.10;;
11287;SDS011;5700;50.996;7.044;2022-09-17T04:23:21;5.82;;;1.25;;
11287;SDS011;5700;50.996;7.044;2022-09-17T04:26:23;6.85;;;1.38;;
11287;SDS011;5700;50.996;7.044;2022-09-17T04:29:24;8.27;;;1.30;;
11287;SDS011;5700;50.996;7.044;2022-09-17T04:32:26;6.13;;;1.88;;
11287;SDS011;5700;50.996;7.044;2022-09-17T04:35:29;6.25;;;1.52;;
11287;SDS011;5700;50.996;7.044;2022-09-17T04:38:30;3.28;;;1.02;;
11287;SDS011;5700;50.996;7.044;2022-09-17T04:41:32;6.22;;;1.08;;
11287;SDS011;5700;50.996;7.044;2022-09-17T04:44:33;5.30;;;1.30;;
11287;SDS011;5700;50.996;7.044;2022-09-17T04:47:36;4.55;;;1.00;;
11287;SDS011;5700;50.996;7.044;2022-09-17T04:50:40;9.55;;;1.52;;
11287;SDS011;5700;50.996;7.044;2022-09-17T04:53:41;3.70;;;1.10;;
11287;SDS011;5700;50.996;7.044;2022-09-17T04:56:42;8.30;;;1.50;;
11287;SDS011;5700;50.996;7.044;2022-09-17T04:59:44;5.85;;;1.15;;
11287;SDS011;5700;50.996;7.044;2022-09-17T05:02:46;8.30;;;1.38;;
11287;SDS011;5700;50.996;7.044;2022-09-17T05:05:50;6.93;;;1.30;;
11287;SDS011;5700;50.996;7.044;2022-09-17T05:08:51;13.70;;;1.83;;
11287;SDS011;5700;50.996;7.044;2022-09-17T05:11:52;6.97;;;1.25;;
11287;SDS011;5700;50.996;7.044;2022-09-17T05:14:54;6.78;;;1.48;;
11287;SDS011;5700;50.996;7.044;2022-09-17T05:17:55;6.38;;;1.42;;
11287;SDS011;5700;50.996;7.044;2022-09-17T05:20:58;8.10;;;1.35;;
11287;SDS011;5700;50.996;7.044;2022-09-17T05:23:59;3.63;;;1.23;;
11287;SDS011;5700;50.996;7.044;2022-09-17T05:27:01;8.40;;;1.23;;
11287;SDS011;5700;50.996;7.044;2022-09-17T05:30:03;3.53;;;1.58;;
11287;SDS011;5700;50.996;7.044;2022-09-17T05:33:05;9.27;;;1.42;;
11287;SDS011;5700;50.996;7.044;2022-09-17T05:36:08;10.65;;;2.03;;
11287;SDS011;5700;50.996;7.044;2022-09-17T05:39:09;7.07;;;1.27;;
11287;SDS011;5700;50.996;7.044;2022-09-17T05:42:11;7.25;;;2.25;;
11287;SDS011;5700;50.996;7.044;2022-09-17T05:45:12;7.75;;;1.38;;
11287;SDS011;5700;50.996;7.044;2022-09-17T05:48:14;3.35;;;1.35;;
11287;SDS011;5700;50.996;7.044;2022-09-17T05:51:16;5.07;;;1.10;;
11287;SDS011;5700;50.996;7.044;2022-09-17T05:54:18;10.60;;;1.30;;
11287;SDS011;5700;50.996;7.044;2022-09-17T05:57:20;5.32;;;1.02;;
11287;SDS011;5700;50.996;7.044;2022-09-17T06:00:21;7.00;;;1.30;;
11287;SDS011;5700;50.996;7.044;2022-09-17T06:03:23;4.55;;;1.45;;
11287;SDS011;5700;50.996;7.044;2022-09-17T06:06:25;5.03;;;1.00;;
11287;SDS011;5700;50.996;7.044;2022-09-17T06:09:28;9.07;;;1.45;;
11287;SDS011;5700;50.996;7.044;2022-09-17T06:12:30;4.10;;;1.10;;
11287;SDS011;5700;50.996;7.044;2022-09-17T06:15:34;8.40;;;1.25;;
11287;SDS011;5700;50.996;7.044;2022-09-17T06:18:35;4.50;;;1.50;;
11287;SDS011;5700;50.996;7.044;2022-09-17T06:21:38;6.90;;;1.17;;
11287;SDS011;5700;50.996;7.044;2022-09-17T06:24:40;5.47;;;1.38;;
11287;SDS011;5700;50.996;7.044;2022-09-17T06:27:41;4.40;;;1.48;;
11287;SDS011;5700;50.996;7.044;2022-09-17T06:30:42;5.93;;;0.95;;
11287;SDS011;5700;50.996;7.044;2022-09-17T06:33:44;12.15;;;1.55;;
11287;SDS011;5700;50.996;7.044;2022-09-17T06:36:48;6.75;;;1.90;;
11287;SDS011;5700;50.996;7.044;2022-09-17T06:39:49;6.10;;;1.50;;
11287;SDS011;5700;50.996;7.044;2022-09-17T06:42:55;5.68;;;0.88;;
11287;SDS011;5700;50.996;7.044;2022-09-17T06:45:57;13.82;;;1.73;;
11287;SDS011;5700;50.996;7.044;2022-09-17T06:48:59;6.60;;;1.00;;
11287;SDS011;5700;50.996;7.044;2022-09-17T06:52:02;6.47;;;1.52;;
11287;SDS011;5700;50.996;7.044;2022-09-17T06:55:04;5.38;;;0.85;;
11287;SDS011;5700;50.996;7.044;2022-09-17T06:58:06;9.45;;;1.33;;
11287;SDS011;5700;50.996;7.044;2022-09-17T07:01:07;5.70;;;1.00;;
11287;SDS011;5700;50.996;7.044;2022-09-17T07:04:09;6.72;;;1.30;;
11287;SDS011;5700;50.996;7.044;2022-09-17T07:07:12;6.82;;;1.13;;
11287;SDS011;5700;50.996;7.044;2022-09-17T07:10:14;6.93;;;0.90;;
11287;SDS011;5700;50.996;7.044;2022-09-17T07:13:15;5.43;;;1.15;;
11287;SDS011;5700;50.996;7.044;2022-09-17T07:16:16;10.00;;;1.05;;
11287;SDS011;5700;50.996;7.044;2022-09-17T07:19:18;5.85;;;0.93;;
11287;SDS011;5700;50.996;7.044;2022-09-17T07:22:21;4.10;;;1.08;;
11287;SDS011;5700;50.996;7.044;2022-09-17T07:25:24;8.00;;;1.20;;
11287;SDS011;5700;50.996;7.044;2022-09-17T07:28:27;5.97;;;1.10;;
11287;SDS011;5700;50.996;7.044;2022-09-17T07:31:28;8.10;;;1.00;;
11287;SDS011;5700;50.996;7.044;2022-09-17T07:34:31;5.63;;;0.80;;
11287;SDS011;5700;50.996;7.044;2022-09-17T07:37:33;6.80;;;1.38;;
11287;SDS011;5700;50.996;7.044;2022-09-17T07:40:35;3.45;;;0.95;;
11287;SDS011;5700;50.996;7.044;2022-09-17T07:43:36;6.50;;;1.08;;
11287;SDS011;5700;50.996;7.044;2022-09-17T07:46:38;6.55;;;1.10;;
11287;SDS011;5700;50.996;7.044;2022-09-17T07:49:39;3.63;;;0.90;;
11287;SDS011;5700;50.996;7.044;2022-09-17T07:52:45;4.88;;;1.42;;
11287;SDS011;5700;50.996;7.044;2022-09-17T07:55:50;5.38;;;0.88;;
11287;SDS011;5700;50.996;7.044;2022-09-17T07:58:52;3.97;;;0.95;;
11287;SDS011;5700;50.996;7.044;2022-09-17T08:01:53;3.97;;;1.00;;
11287;SDS011;5700;50.996;7.044;2022-09-17T08:04:55;5.80;;;1.30;;
11287;SDS011;5700;50.996;7.044;2022-09-17T08:07:57;7.45;;;1.08;;
11287;SDS011;5700;50.996;7.044;2022-09-17T08:10:59;3.95;;;1.08;;
11287;SDS011;5700;50.996;7.044;2022-09-17T08:14:01;3.67;;;1.10;;
11287;SDS011;5700;50.996;7.044;2022-09-17T08:17:05;5.10;;;1.20;;
11287;SDS011;5700;50.996;7.044;2022-09-17T08:20:07;5.60;;;0.90;;
11287;SDS011;5700;50.996;7.044;2022-09-17T08:23:10;7.03;;;0.93;;
11287;SDS011;5700;50.996;7.044;2022-09-17T08:26:12;7.82;;;1.42;;
11287;SDS011;5700;50.996;7.044;2022-09-17T08:29:14;3.47;;;0.85;;
11287;SDS011;5700;50.996;7.044;2022-09-17T08:32:15;5.47;;;1.15;;
11287;SDS011;5700;50.996;7.044;2022-09-17T08:35:17;6.10;;;1.20;;
11287;SDS011;5700;50.996;7.044;2022-09-17T08:38:19;8.55;;;1.60;;
11287;SDS011;5700;50.996;7.044;2022-09-17T08:41:23;9.32;;;1.27;;
11287;SDS011;5700;50.996;7.044;2022-09-17T08:44:29;6.20;;;1.10;;
11287;SDS011;5700;50.996;7.044;2022-09-17T08:47:33;4.65;;;0.88;;
11287;SDS011;5700;50.996;7.044;2022-09-17T08:50:37;4.50;;;0.95;;
11287;SDS011;5700;50.996;7.044;2022-09-17T08:53:44;3.10;;;0.73;;
11287;SDS011;5700;50.996;7.044;2022-09-17T08:56:56;4.22;;;0.70;;
11287;SDS011;5700;50.996;7.044;2022-09-17T09:00:08;7.03;;;1.33;;
11287;SDS011;5700;50.996;7.044;2022-09-17T09:03:16;4.13;;;1.05;;
11287;SDS011;5700;50.996;7.044;2022-09-17T09:06:23;5.25;;;0.60;;
11287;SDS011;5700;50.996;7.044;2022-09-17T09:09:29;6.95;;;0.95;;
11287;SDS011;5700;50.996;7.044;2022-09-17T09:12:35;2.63;;;0.70;;
11287;SDS011;5700;50.996;7.044;2022-09-17T09:15:39;3.70;;;1.40;;
11287;SDS011;5700;50.996;7.044;2022-09-17T09:18:42;8.27;;;1.13;;
11287;SDS011;5700;50.996;7.044;2022-09-17T09:21:45;6.22;;;0.80;;
11287;SDS011;5700;50.996;7.044;2022-09-17T09:25:03;3.70;;;0.55;;
11287;SDS011;5700;50.996;7.044;2022-09-17T09:28:12;4.53;;;1.05;;
11287;SDS011;5700;50.996;7.044;2022-09-17T09:31:21;6.70;;;1.00;;
11287;SDS011;5700;50.996;7.044;2022-09-17T09:34:30;6.10;;;0.88;;
11287;SDS011;5700;50.996;7.044;2022-09-17T09:37:33;5.40;;;1.30;;
11287;SDS011;5700;50.996;7.044;2022-09-17T09:40:39;5.22;;;0.85;;
11287;SDS011;5700;50.996;7.044;2022-09-17T09:43:43;5.35;;;0.90;;
11287;SDS011;5700;50.996;7.044;2022-09-17T09:46:50;4.10;;;0.82;;
11287;SDS011;5700;50.996;7.044;2022-09-17T09:50:04;5.35;;;0.90;;
11287;SDS011;5700;50.996;7.044;2022-09-17T09:53:17;4.63;;;0.60;;
11287;SDS011;5700;50.996;7.044;2022-09-17T09:56:30;5.15;;;0.60;;
11287;SDS011;5700;50.996;7.044;2022-09-17T09:59:37;3.60;;;0.90;;
11287;SDS011;5700;50.996;7.044;2022-09-17T10:02:40;4.88;;;1.42;;
11287;SDS011;5700;50.996;7.044;2022-09-17T10:05:50;5.97;;;0.90;;
11287;SDS011;5700;50.996;7.044;2022-09-17T10:12:18;5.00;;;0.80;;
11287;SDS011;5700;50.996;7.044;2022-09-17T10:15:22;8.15;;;0.88;;
11287;SDS011;5700;50.996;7.044;2022-09-17T10:18:25;8.10;;;0.90;;
11287;SDS011;5700;50.996;7.044;2022-09-17T10:21:29;5.00;;;1.10;;
11287;SDS011;5700;50.996;7.044;2022-09-17T10:24:31;2.50;;;0.68;;
11287;SDS011;5700;50.996;7.044;2022-09-17T10:27:35;4.35;;;0.75;;
11287;SDS011;5700;50.996;7.044;2022-09-17T10:30:37;3.72;;;0.60;;
11287;SDS011;5700;50.996;7.044;2022-09-17T10:33:39;3.67;;;0.68;;
11287;SDS011;5700;50.996;7.044;2022-09-17T10:36:51;1.73;;;0.50;;
11287;SDS011;5700;50.996;7.044;2022-09-17T10:39:54;4.68;;;0.60;;
11287;SDS011;5700;50.996;7.044;2022-09-17T10:46:18;5.20;;;0.73;;
11287;SDS011;5700;50.996;7.044;2022-09-17T10:49:28;3.35;;;0.60;;
11287;SDS011;5700;50.996;7.044;2022-09-17T10:52:36;2.60;;;0.65;;
11287;SDS011;5700;50.996;7.044;2022-09-17T10:55:38;2.88;;;0.60;;
11287;SDS011;5700;50.996;7.044;2022-09-17T10:58:50;4.75;;;1.13;;
11287;SDS011;5700;50.996;7.044;2022-09-17T11:01:56;4.60;;;1.20;;
11287;SDS011;5700;50.996;7.044;2022-09-17T11:05:06;0.88;;;0.20;;
11287;SDS011;5700;50.996;7.044;2022-09-17T11:08:21;5.45;;;1.30;;
11287;SDS011;5700;50.996;7.044;2022-09-17T11:11:28;2.45;;;0.70;;
11287;SDS011;5700;50.996;7.044;2022-09-17T11:14:40;4.30;;;1.10;;
11287;SDS011;5700;50.996;7.044;2022-09-17T11:17:54;3.40;;;0.70;;
11287;SDS011;5700;50.996;7.044;2022-09-17T11:21:08;3.78;;;0.73;;
11287;SDS011;5700;50.996;7.044;2022-09-17T11:24:24;4.43;;;0.55;;
11287;SDS011;5700;50.996;7.044;2022-09-17T11:27:37;1.88;;;0.47;;
11287;SDS011;5700;50.996;7.044;2022-09-17T11:30:51;1.13;;;0.40;;
11287;SDS011;5700;50.996;7.044;2022-09-17T11:34:01;6.40;;;0.55;;
11287;SDS011;5700;50.996;7.044;2022-09-17T11:37:11;5.03;;;0.77;;
11287;SDS011;5700;50.996;7.044;2022-09-17T11:40:15;3.28;;;0.65;;
11287;SDS011;5700;50.996;7.044;2022-09-17T11:43:20;4.13;;;0.45;;
11287;SDS011;5700;50.996;7.044;2022-09-17T11:46:28;1.45;;;0.40;;
11287;SDS011;5700;50.996;7.044;2022-09-17T11:49:32;5.18;;;0.70;;
11287;SDS011;5700;50.996;7.044;2022-09-17T11:52:38;2.78;;;0.68;;
11287;SDS011;5700;50.996;7.044;2022-09-17T11:55:43;4.65;;;0.55;;
11287;SDS011;5700;50.996;7.044;2022-09-17T11:58:48;3.58;;;0.60;;
11287;SDS011;5700;50.996;7.044;2022-09-17T12:01:54;1.55;;;0.40;;
11287;SDS011;5700;50.996;7.044;2022-09-17T12:04:59;3.67;;;1.50;;
11287;SDS011;5700;50.996;7.044;2022-09-17T12:08:07;5.63;;;0.77;;
11287;SDS011;5700;50.996;7.044;2022-09-17T12:11:14;0.38;;;0.20;;
11287;SDS011;5700;50.996;7.044;2022-09-17T12:14:20;1.30;;;0.30;;
11287;SDS011;5700;50.996;7.044;2022-09-17T12:17:25;1.30;;;0.35;;
11287;SDS011;5700;50.996;7.044;2022-09-17T12:20:30;0.88;;;0.38;;
11287;SDS011;5700;50.996;7.044;2022-09-17T12:23:35;2.67;;;0.50;;
11287;SDS011;5700;50.996;7.044;2022-09-17T12:26:50;0.80;;;0.57;;
11287;SDS011;5700;50.996;7.044;2022-09-17T12:30:04;1.05;;;0.45;;
11287;SDS011;5700;50.996;7.044;2022-09-17T12:33:12;2.83;;;0.47;;
11287;SDS011;5700;50.996;7.044;2022-09-17T12:36:22;0.45;;;0.38;;
11287;SDS011;5700;50.996;7.044;2022-09-17T12:39:36;0.93;;;0.47;;
11287;SDS011;5700;50.996;7.044;2022-09-17T12:42:50;4.45;;;0.60;;
11287;SDS011;5700;50.996;7.044;2022-09-17T12:46:00;2.30;;;0.55;;
11287;SDS011;5700;50.996;7.044;2022-09-17T12:49:17;1.90;;;0.52;;
11287;SDS011;5700;50.996;7.044;2022-09-17T12:52:41;3.03;;;0.50;;
11287;SDS011;5700;50.996;7.044;2022-09-17T12:55:49;4.60;;;0.82;;
11287;SDS011;5700;50.996;7.044;2022-09-17T12:59:03;1.60;;;0.60;;
11287;SDS011;5700;50.996;7.044;2022-09-17T13:02:13;3.85;;;0.60;;
11287;SDS011;5700;50.996;7.044;2022-09-17T13:05:29;3.00;;;0.77;;
11287;SDS011;5700;50.996;7.044;2022-09-17T13:08:45;0.75;;;0.57;;
11287;SDS011;5700;50.996;7.044;2022-09-17T13:11:58;3.85;;;0.65;;
11287;SDS011;5700;50.996;7.044;2022-09-17T13:15:14;1.70;;;0.40;;
11287;SDS011;5700;50.996;7.044;2022-09-17T13:18:36;1.17;;;0.40;;
11287;SDS011;5700;50.996;7.044;2022-09-17T13:21:44;0.50;;;0.30;;
11287;SDS011;5700;50.996;7.044;2022-09-17T13:25:00;1.50;;;0.47;;
11287;SDS011;5700;50.996;7.044;2022-09-17T13:28:03;3.30;;;0.50;;
11287;SDS011;5700;50.996;7.044;2022-09-17T13:31:07;3.55;;;0.50;;
11287;SDS011;5700;50.996;7.044;2022-09-17T13:34:25;1.50;;;0.60;;
11287;SDS011;5700;50.996;7.044;2022-09-17T13:37:30;0.50;;;0.40;;
11287;SDS011;5700;50.996;7.044;2022-09-17T13:40:32;1.55;;;0.50;;
11287;SDS011;5700;50.996;7.044;2022-09-17T13:43:34;0.93;;;0.55;;
11287;SDS011;5700;50.996;7.044;2022-09-17T13:46:45;1.95;;;0.50;;
11287;SDS011;5700;50.996;7.044;2022-09-17T13:49:48;2.90;;;0.70;;
11287;SDS011;5700;50.996;7.044;2022-09-17T13:52:53;1.10;;;0.55;;
11287;SDS011;5700;50.996;7.044;2022-09-17T13:55:56;3.10;;;0.70;;
11287;SDS011;5700;50.996;7.044;2022-09-17T13:59:04;3.42;;;0.80;;
11287;SDS011;5700;50.996;7.044;2022-09-17T14:05:33;2.70;;;0.70;;
11287;SDS011;5700;50.996;7.044;2022-09-17T14:08:46;0.85;;;0.40;;
11287;SDS011;5700;50.996;7.044;2022-09-17T14:11:49;1.48;;;0.63;;
11287;SDS011;5700;50.996;7.044;2022-09-17T14:14:50;4.40;;;1.13;;
11287;SDS011;5700;50.996;7.044;2022-09-17T14:17:52;3.70;;;0.90;;
11287;SDS011;5700;50.996;7.044;2022-09-17T14:20:54;2.97;;;0.60;;
11287;SDS011;5700;50.996;7.044;2022-09-17T14:24:18;4.50;;;0.77;;
11287;SDS011;5700;50.996;7.044;2022-09-17T14:27:26;1.98;;;0.60;;
11287;SDS011;5700;50.996;7.044;2022-09-17T14:30:33;2.33;;;0.60;;
11287;SDS011;5700;50.996;7.044;2022-09-17T14:33:35;1.65;;;0.73;;
11287;SDS011;5700;50.996;7.044;2022-09-17T14:36:36;2.38;;;0.60;;
11287;SDS011;5700;50.996;7.044;2022-09-17T14:39:40;0.98;;;0.73;;
11287;SDS011;5700;50.996;7.044;2022-09-17T14:42:41;3.80;;;0.70;;
11287;SDS011;5700;50.996;7.044;2022-09-17T14:45:43;1.25;;;0.57;;
11287;SDS011;5700;50.996;7.044;2022-09-17T14:48:44;4.95;;;0.70;;
11287;SDS011;5700;50.996;7.044;2022-09-17T14:51:46;5.25;;;0.98;;
11287;SDS011;5700;50.996;7.044;2022-09-17T14:54:49;1.63;;;0.63;;
11287;SDS011;5700;50.996;7.044;2022-09-17T14:58:21;1.63;;;0.70;;
11287;SDS011;5700;50.996;7.044;2022-09-17T15:01:26;3.22;;;0.70;;
11287;SDS011;5700;50.996;7.044;2022-09-17T15:04:29;1.52;;;0.50;;
11287;SDS011;5700;50.996;7.044;2022-09-17T15:07:31;5.50;;;1.23;;
11287;SDS011;5700;50.996;7.044;2022-09-17T15:10:34;0.40;;;0.20;;
11287;SDS011;5700;50.996;7.044;2022-09-17T15:13:41;1.48;;;0.45;;
11287;SDS011;5700;50.996;7.044;2022-09-17T15:16:46;3.08;;;0.70;;
11287;SDS011;5700;50.996;7.044;2022-09-17T15:19:48;1.08;;;0.43;;
11287;SDS011;5700;50.996;7.044;2022-09-17T15:22:53;1.50;;;0.50;;
11287;SDS011;5700;50.996;7.044;2022-09-17T15:25:58;6.97;;;0.98;;
11287;SDS011;5700;50.996;7.044;2022-09-17T15:29:00;1.90;;;0.63;;
11287;SDS011;5700;50.996;7.044;2022-09-17T15:32:02;1.83;;;1.00;;
11287;SDS011;5700;50.996;7.044;2022-09-17T15:38:25;3.67;;;1.15;;
11287;SDS011;5700;50.996;7.044;2022-09-17T15:41:29;4.65;;;1.17;;
11287;SDS011;5700;50.996;7.044;2022-09-17T15:44:32;5.20;;;1.08;;
11287;SDS011;5700;50.996;7.044;2022-09-17T15:47:34;3.40;;;0.75;;
11287;SDS011;5700;50.996;7.044;2022-09-17T15:50:48;8.88;;;0.95;;
11287;SDS011;5700;50.996;7.044;2022-09-17T15:53:51;6.07;;;0.75;;
11287;SDS011;5700;50.996;7.044;2022-09-17T15:56:55;6.90;;;1.35;;
11287;SDS011;5700;50.996;7.044;2022-09-17T16:00:10;2.10;;;0.85;;
11287;SDS011;5700;50.996;7.044;2022-09-17T16:03:34;4.18;;;0.77;;
11287;SDS011;5700;50.996;7.044;2022-09-17T16:07:16;5.13;;;0.57;;
11287;SDS011;5700;50.996;7.044;2022-09-17T16:10:24;4.03;;;1.25;;
11287;SDS011;5700;50.996;7.044;2022-09-17T16:13:27;6.03;;;1.38;;
11287;SDS011;5700;50.996;7.044;2022-09-17T16:16:31;6.35;;;1.00;;
11287;SDS011;5700;50.996;7.044;2022-09-17T16:19:33;4.30;;;0.88;;
11287;SDS011;5700;50.996;7.044;2022-09-17T16:22:35;4.50;;;1.13;;
11287;SDS011;5700;50.996;7.044;2022-09-17T16:25:37;5.50;;;1.20;;
11287;SDS011;5700;50.996;7.044;2022-09-17T16:28:40;3.40;;;0.95;;
11287;SDS011;5700;50.996;7.044;2022-09-17T16:31:42;4.07;;;0.95;;
11287;SDS011;5700;50.996;7.044;2022-09-17T16:34:44;2.50;;;1.00;;
11287;SDS011;5700;50.996;7.044;2022-09-17T16:37:46;5.28;;;1.20;;
11287;SDS011;5700;50.996;7.044;2022-09-17T16:40:49;7.93;;;1.17;;
11287;SDS011;5700;50.996;7.044;2022-09-17T16:43:52;5.43;;;1.50;;
11287;SDS011;5700;50.996;7.044;2022-09-17T16:46:53;9.50;;;1.17;;
11287;SDS011;5700;50.996;7.044;2022-09-17T16:49:54;7.30;;;0.80;;
11287;SDS011;5700;50.996;7.044;2022-09-17T16:52:56;6.28;;;0.98;;
11287;SDS011;5700;50.996;7.044;2022-09-17T16:55:57;3.25;;;0.82;;
11287;SDS011;5700;50.996;7.044;2022-09-17T16:59:00;5.90;;;1.02;;
11287;SDS011;5700;50.996;7.044;2022-09-17T17:02:01;5.22;;;1.20;;
11287;SDS011;5700;50.996;7.044;2022-09-17T17:05:03;4.80;;;0.88;;
11287;SDS011;5700;50.996;7.044;2022-09-17T17:08:05;7.68;;;1.25;;
11287;SDS011;5700;50.996;7.044;2022-09-17T17:11:07;3.45;;;0.60;;
11287;SDS011;5700;50.996;7.044;2022-09-17T17:14:10;5.32;;;0.70;;
11287;SDS011;5700;50.996;7.044;2022-09-17T17:17:12;2.60;;;0.65;;
11287;SDS011;5700;50.996;7.044;2022-09-17T17:20:13;3.22;;;0.52;;
11287;SDS011;5700;50.996;7.044;2022-09-17T17:23:15;2.67;;;0.85;;
11287;SDS011;5700;50.996;7.044;2022-09-17T17:26:17;5.15;;;0.60;;
11287;SDS011;5700;50.996;7.044;2022-09-17T17:29:19;4.03;;;0.73;;
11287;SDS011;5700;50.996;7.044;2022-09-17T17:32:21;3.38;;;0.68;;
11287;SDS011;5700;50.996;7.044;2022-09-17T17:35:22;7.07;;;0.88;;
11287;SDS011;5700;50.996;7.044;2022-09-17T17:38:24;5.63;;;0.70;;
11287;SDS011;5700;50.996;7.044;2022-09-17T17:41:26;3.13;;;0.70;;
11287;SDS011;5700;50.996;7.044;2022-09-17T17:44:28;5.30;;;1.10;;
11287;SDS011;5700;50.996;7.044;2022-09-17T17:47:30;2.70;;;0.57;;
11287;SDS011;5700;50.996;7.044;2022-09-17T17:50:31;5.05;;;0.90;;
11287;SDS011;5700;50.996;7.044;2022-09-17T17:53:33;4.50;;;0.70;;
11287;SDS011;5700;50.996;7.044;2022-09-17T17:56:35;4.63;;;0.80;;
11287;SDS011;5700;50.996;7.044;2022-09-17T17:59:37;5.43;;;1.25;;
11287;SDS011;5700;50.996;7.044;2022-09-17T18:02:39;5.75;;;0.88;;
11287;SDS011;5700;50.996;7.044;2022-09-17T18:05:40;3.47;;;0.90;;
11287;SDS011;5700;50.996;7.044;2022-09-17T18:08:42;4.75;;;1.05;;
11287;SDS011;5700;50.996;7.044;2022-09-17T18:11:44;5.00;;;0.98;;
11287;SDS011;5700;50.996;7.044;2022-09-17T18:14:46;2.80;;;0.60;;
11287;SDS011;5700;50.996;7.044;2022-09-17T18:17:48;3.53;;;0.70;;
11287;SDS011;5700;50.996;7.044;2022-09-17T18:20:52;3.40;;;0.80;;
11287;SDS011;5700;50.996;7.044;2022-09-17T18:23:54;2.75;;;0.90;;
11287;SDS011;5700;50.996;7.044;2022-09-17T18:26:56;4.35;;;1.08;;
11287;SDS011;5700;50.996;7.044;2022-09-17T18:29:58;3.97;;;0.88;;
11287;SDS011;5700;50.996;7.044;2022-09-17T18:33:00;6.25;;;1.20;;
11287;SDS011;5700;50.996;7.044;2022-09-17T18:36:02;2.92;;;0.88;;
11287;SDS011;5700;50.996;7.044;2022-09-17T18:39:05;4.75;;;0.90;;
11287;SDS011;5700;50.996;7.044;2022-09-17T18:42:08;6.13;;;1.25;;
11287;SDS011;5700;50.996;7.044;2022-09-17T18:45:11;7.07;;;1.83;;
11287;SDS011;5700;50.996;7.044;2022-09-17T18:48:12;8.10;;;1.33;;
11287;SDS011;5700;50.996;7.044;2022-09-17T18:51:13;8.98;;;1.48;;
11287;SDS011;5700;50.996;7.044;2022-09-17T18:54:15;9.48;;;1.40;;
11287;SDS011;5700;50.996;7.044;2022-09-17T18:57:16;7.15;;;1.30;;
11287;SDS011;5700;50.996;7.044;2022-09-17T19:00:19;7.55;;;1.63;;
11287;SDS011;5700;50.996;7.044;2022-09-17T19:03:21;4.93;;;1.30;;